sensor_id;sensor_type;location;lat;lon;timestamp;P1;durP1;ratioP1;P2;durP2;ratioP2
69369;SDS011;56530;42.640;23.372;2023-09-18T00:01:04;17.43;;;15.63;;
69369;SDS011;56530;42.640;23.372;2023-09-18T00:03:30;18.58;;;16.60;;
69369;SDS011;56530;42.640;23.372;2023-09-18T00:05:56;19.43;;;17.60;;
69369;SDS011;56530;42.640;23.372;2023-09-18T00:08:21;20.37;;;18.37;;
69369;SDS011;56530;42.640;23.372;2023-09-18T00:10:47;21.57;;;19.53;;
69369;SDS011;56530;42.640;23.372;2023-09-18T00:13:14;22.77;;;20.48;;
69369;SDS011;56530;42.640;23.372;2023-09-18T00:15:39;22.87;;;20.90;;
69369;SDS011;56530;42.640;23.372;2023-09-18T00:18:06;24.23;;;22.02;;
69369;SDS011;56530;42.640;23.372;2023-09-18T00:20:31;25.00;;;22.85;;
69369;SDS011;56530;42.640;23.372;2023-09-18T00:22:57;25.13;;;22.92;;
69369;SDS011;56530;42.640;23.372;2023-09-18T00:25:22;26.33;;;23.90;;
69369;SDS011;56530;42.640;23.372;2023-09-18T00:27:48;26.20;;;23.87;;
69369;SDS011;56530;42.640;23.372;2023-09-18T00:30:13;24.75;;;22.58;;
69369;SDS011;56530;42.640;23.372;2023-09-18T00:32:39;25.15;;;22.65;;
69369;SDS011;56530;42.640;23.372;2023-09-18T00:35:04;23.20;;;21.30;;
69369;SDS011;56530;42.640;23.372;2023-09-18T00:37:30;25.03;;;22.43;;
69369;SDS011;56530;42.640;23.372;2023-09-18T00:39:55;26.00;;;23.67;;
69369;SDS011;56530;42.640;23.372;2023-09-18T00:42:21;25.20;;;23.00;;
69369;SDS011;56530;42.640;23.372;2023-09-18T00:44:47;26.17;;;23.98;;
69369;SDS011;56530;42.640;23.372;2023-09-18T00:47:13;26.50;;;24.23;;
69369;SDS011;56530;42.640;23.372;2023-09-18T00:49:39;26.42;;;23.77;;
69369;SDS011;56530;42.640;23.372;2023-09-18T00:52:06;25.73;;;23.43;;
69369;SDS011;56530;42.640;23.372;2023-09-18T00:54:32;25.08;;;22.88;;
69369;SDS011;56530;42.640;23.372;2023-09-18T00:56:58;26.85;;;24.45;;
69369;SDS011;56530;42.640;23.372;2023-09-18T00:59:24;27.10;;;24.70;;
69369;SDS011;56530;42.640;23.372;2023-09-18T01:01:50;25.87;;;23.63;;
69369;SDS011;56530;42.640;23.372;2023-09-18T01:04:19;25.33;;;23.23;;
69369;SDS011;56530;42.640;23.372;2023-09-18T01:06:44;24.95;;;22.55;;
69369;SDS011;56530;42.640;23.372;2023-09-18T01:09:10;24.40;;;22.30;;
69369;SDS011;56530;42.640;23.372;2023-09-18T01:11:44;25.05;;;22.75;;
69369;SDS011;56530;42.640;23.372;2023-09-18T01:14:37;23.63;;;21.45;;
69369;SDS011;56530;42.640;23.372;2023-09-18T01:17:14;23.23;;;20.83;;
69369;SDS011;56530;42.640;23.372;2023-09-18T01:19:42;25.10;;;22.70;;
69369;SDS011;56530;42.640;23.372;2023-09-18T01:22:12;22.10;;;20.00;;
69369;SDS011;56530;42.640;23.372;2023-09-18T01:24:39;23.40;;;21.40;;
69369;SDS011;56530;42.640;23.372;2023-09-18T01:27:08;24.42;;;22.33;;
69369;SDS011;56530;42.640;23.372;2023-09-18T01:29:34;20.05;;;18.25;;
69369;SDS011;56530;42.640;23.372;2023-09-18T01:32:00;20.40;;;18.70;;
69369;SDS011;56530;42.640;23.372;2023-09-18T01:34:26;17.40;;;15.90;;
69369;SDS011;56530;42.640;23.372;2023-09-18T01:36:53;19.77;;;17.98;;
69369;SDS011;56530;42.640;23.372;2023-09-18T01:39:20;18.80;;;16.90;;
69369;SDS011;56530;42.640;23.372;2023-09-18T01:41:46;20.73;;;18.67;;
69369;SDS011;56530;42.640;23.372;2023-09-18T01:44:12;19.70;;;17.77;;
69369;SDS011;56530;42.640;23.372;2023-09-18T01:46:37;18.47;;;16.87;;
69369;SDS011;56530;42.640;23.372;2023-09-18T01:49:03;20.10;;;18.40;;
69369;SDS011;56530;42.640;23.372;2023-09-18T01:51:29;20.50;;;18.80;;
69369;SDS011;56530;42.640;23.372;2023-09-18T01:53:55;19.45;;;17.52;;
69369;SDS011;56530;42.640;23.372;2023-09-18T01:56:21;20.45;;;18.63;;
69369;SDS011;56530;42.640;23.372;2023-09-18T01:58:46;20.40;;;18.60;;
69369;SDS011;56530;42.640;23.372;2023-09-18T02:01:12;21.50;;;19.60;;
69369;SDS011;56530;42.640;23.372;2023-09-18T02:03:37;21.97;;;20.07;;
69369;SDS011;56530;42.640;23.372;2023-09-18T02:06:07;21.50;;;19.65;;
69369;SDS011;56530;42.640;23.372;2023-09-18T02:08:33;23.05;;;20.95;;
69369;SDS011;56530;42.640;23.372;2023-09-18T02:10:59;21.20;;;19.30;;
69369;SDS011;56530;42.640;23.372;2023-09-18T02:13:24;21.40;;;19.50;;
69369;SDS011;56530;42.640;23.372;2023-09-18T02:15:50;20.80;;;18.83;;
69369;SDS011;56530;42.640;23.372;2023-09-18T02:18:15;22.88;;;20.70;;
69369;SDS011;56530;42.640;23.372;2023-09-18T02:20:41;21.30;;;19.50;;
69369;SDS011;56530;42.640;23.372;2023-09-18T02:23:07;20.77;;;18.90;;
69369;SDS011;56530;42.640;23.372;2023-09-18T02:25:32;21.45;;;19.45;;
69369;SDS011;56530;42.640;23.372;2023-09-18T02:27:57;21.15;;;19.35;;
69369;SDS011;56530;42.640;23.372;2023-09-18T02:30:23;20.40;;;18.60;;
69369;SDS011;56530;42.640;23.372;2023-09-18T02:32:48;19.00;;;17.30;;
69369;SDS011;56530;42.640;23.372;2023-09-18T02:35:14;18.30;;;16.67;;
69369;SDS011;56530;42.640;23.372;2023-09-18T02:37:39;18.47;;;16.83;;
69369;SDS011;56530;42.640;23.372;2023-09-18T02:40:05;22.40;;;17.77;;
69369;SDS011;56530;42.640;23.372;2023-09-18T02:42:30;17.38;;;15.75;;
69369;SDS011;56530;42.640;23.372;2023-09-18T02:44:56;17.27;;;15.70;;
69369;SDS011;56530;42.640;23.372;2023-09-18T02:47:23;18.92;;;17.13;;
69369;SDS011;56530;42.640;23.372;2023-09-18T02:49:48;18.50;;;16.80;;
69369;SDS011;56530;42.640;23.372;2023-09-18T02:52:14;18.03;;;16.30;;
69369;SDS011;56530;42.640;23.372;2023-09-18T02:54:39;18.57;;;16.77;;
69369;SDS011;56530;42.640;23.372;2023-09-18T02:57:05;19.33;;;17.57;;
69369;SDS011;56530;42.640;23.372;2023-09-18T02:59:30;19.03;;;17.33;;
69369;SDS011;56530;42.640;23.372;2023-09-18T03:01:56;18.50;;;16.90;;
69369;SDS011;56530;42.640;23.372;2023-09-18T03:04:21;19.83;;;18.13;;
69369;SDS011;56530;42.640;23.372;2023-09-18T03:06:46;19.40;;;17.70;;
69369;SDS011;56530;42.640;23.372;2023-09-18T03:09:12;20.37;;;18.43;;
69369;SDS011;56530;42.640;23.372;2023-09-18T03:11:37;20.27;;;18.20;;
69369;SDS011;56530;42.640;23.372;2023-09-18T03:14:03;21.20;;;19.27;;
69369;SDS011;56530;42.640;23.372;2023-09-18T03:16:28;20.77;;;18.98;;
69369;SDS011;56530;42.640;23.372;2023-09-18T03:18:56;21.38;;;19.55;;
69369;SDS011;56530;42.640;23.372;2023-09-18T03:21:22;21.75;;;19.77;;
69369;SDS011;56530;42.640;23.372;2023-09-18T03:23:47;21.13;;;19.13;;
69369;SDS011;56530;42.640;23.372;2023-09-18T03:26:12;21.43;;;19.43;;
69369;SDS011;56530;42.640;23.372;2023-09-18T03:28:38;22.77;;;20.57;;
69369;SDS011;56530;42.640;23.372;2023-09-18T03:31:04;21.43;;;19.43;;
69369;SDS011;56530;42.640;23.372;2023-09-18T03:33:30;22.27;;;20.38;;
69369;SDS011;56530;42.640;23.372;2023-09-18T03:35:56;22.73;;;20.63;;
69369;SDS011;56530;42.640;23.372;2023-09-18T03:38:23;23.42;;;20.67;;
69369;SDS011;56530;42.640;23.372;2023-09-18T03:40:49;24.00;;;21.60;;
69369;SDS011;56530;42.640;23.372;2023-09-18T03:43:15;22.67;;;20.37;;
69369;SDS011;56530;42.640;23.372;2023-09-18T03:45:40;22.57;;;20.67;;
69369;SDS011;56530;42.640;23.372;2023-09-18T03:48:06;23.60;;;21.20;;
69369;SDS011;56530;42.640;23.372;2023-09-18T03:50:31;24.20;;;22.08;;
69369;SDS011;56530;42.640;23.372;2023-09-18T03:52:57;23.20;;;20.80;;
69369;SDS011;56530;42.640;23.372;2023-09-18T03:55:22;24.13;;;21.83;;
69369;SDS011;56530;42.640;23.372;2023-09-18T03:57:48;22.65;;;20.55;;
69369;SDS011;56530;42.640;23.372;2023-09-18T04:00:13;23.38;;;20.95;;
69369;SDS011;56530;42.640;23.372;2023-09-18T04:02:39;22.83;;;20.83;;
69369;SDS011;56530;42.640;23.372;2023-09-18T04:05:05;23.67;;;21.50;;
69369;SDS011;56530;42.640;23.372;2023-09-18T04:07:32;23.23;;;21.20;;
69369;SDS011;56530;42.640;23.372;2023-09-18T04:09:57;23.97;;;21.70;;
69369;SDS011;56530;42.640;23.372;2023-09-18T04:12:22;24.87;;;22.67;;
69369;SDS011;56530;42.640;23.372;2023-09-18T04:14:48;23.90;;;21.77;;
69369;SDS011;56530;42.640;23.372;2023-09-18T04:17:13;25.48;;;23.17;;
69369;SDS011;56530;42.640;23.372;2023-09-18T04:19:40;25.10;;;22.75;;
69369;SDS011;56530;42.640;23.372;2023-09-18T04:22:05;25.00;;;22.73;;
69369;SDS011;56530;42.640;23.372;2023-09-18T04:24:31;24.63;;;22.43;;
69369;SDS011;56530;42.640;23.372;2023-09-18T04:26:56;27.57;;;24.87;;
69369;SDS011;56530;42.640;23.372;2023-09-18T04:29:21;26.07;;;23.43;;
69369;SDS011;56530;42.640;23.372;2023-09-18T04:31:47;26.13;;;23.70;;
69369;SDS011;56530;42.640;23.372;2023-09-18T04:34:13;23.73;;;21.60;;
69369;SDS011;56530;42.640;23.372;2023-09-18T04:36:39;26.52;;;23.90;;
69369;SDS011;56530;42.640;23.372;2023-09-18T04:39:04;25.87;;;23.13;;
69369;SDS011;56530;42.640;23.372;2023-09-18T04:41:30;24.33;;;22.00;;
69369;SDS011;56530;42.640;23.372;2023-09-18T04:43:56;24.65;;;22.15;;
69369;SDS011;56530;42.640;23.372;2023-09-18T04:46:21;21.70;;;19.53;;
69369;SDS011;56530;42.640;23.372;2023-09-18T04:48:48;22.40;;;20.08;;
69369;SDS011;56530;42.640;23.372;2023-09-18T04:51:13;22.17;;;19.40;;
69369;SDS011;56530;42.640;23.372;2023-09-18T04:53:38;20.00;;;18.17;;
69369;SDS011;56530;42.640;23.372;2023-09-18T04:56:04;20.45;;;18.38;;
69369;SDS011;56530;42.640;23.372;2023-09-18T04:58:30;17.83;;;16.13;;
69369;SDS011;56530;42.640;23.372;2023-09-18T05:00:57;21.38;;;18.30;;
69369;SDS011;56530;42.640;23.372;2023-09-18T05:03:23;17.38;;;15.77;;
69369;SDS011;56530;42.640;23.372;2023-09-18T05:05:48;18.58;;;16.83;;
69369;SDS011;56530;42.640;23.372;2023-09-18T05:08:14;19.25;;;17.02;;
69369;SDS011;56530;42.640;23.372;2023-09-18T05:10:40;18.53;;;16.50;;
69369;SDS011;56530;42.640;23.372;2023-09-18T05:13:05;19.20;;;17.30;;
69369;SDS011;56530;42.640;23.372;2023-09-18T05:15:31;19.85;;;16.88;;
69369;SDS011;56530;42.640;23.372;2023-09-18T05:17:57;17.90;;;16.27;;
69369;SDS011;56530;42.640;23.372;2023-09-18T05:20:24;13.77;;;12.30;;
69369;SDS011;56530;42.640;23.372;2023-09-18T05:22:53;15.35;;;13.70;;
69369;SDS011;56530;42.640;23.372;2023-09-18T05:25:20;16.10;;;12.40;;
69369;SDS011;56530;42.640;23.372;2023-09-18T05:27:50;17.55;;;13.13;;
69369;SDS011;56530;42.640;23.372;2023-09-18T05:30:21;16.70;;;12.75;;
69369;SDS011;56530;42.640;23.372;2023-09-18T05:32:50;14.48;;;12.98;;
69369;SDS011;56530;42.640;23.372;2023-09-18T05:35:15;14.43;;;12.97;;
69369;SDS011;56530;42.640;23.372;2023-09-18T05:37:41;16.02;;;14.25;;
69369;SDS011;56530;42.640;23.372;2023-09-18T05:40:07;17.10;;;13.43;;
69369;SDS011;56530;42.640;23.372;2023-09-18T05:42:37;13.68;;;12.27;;
69369;SDS011;56530;42.640;23.372;2023-09-18T05:45:03;20.30;;;12.75;;
69369;SDS011;56530;42.640;23.372;2023-09-18T05:47:29;16.60;;;12.67;;
69369;SDS011;56530;42.640;23.372;2023-09-18T05:49:57;15.75;;;12.80;;
69369;SDS011;56530;42.640;23.372;2023-09-18T05:52:22;15.48;;;12.73;;
69369;SDS011;56530;42.640;23.372;2023-09-18T05:54:48;15.23;;;12.80;;
69369;SDS011;56530;42.640;23.372;2023-09-18T05:57:14;16.50;;;12.80;;
69369;SDS011;56530;42.640;23.372;2023-09-18T05:59:39;14.93;;;13.07;;
69369;SDS011;56530;42.640;23.372;2023-09-18T06:02:08;19.47;;;13.37;;
69369;SDS011;56530;42.640;23.372;2023-09-18T06:04:34;15.63;;;13.33;;
69369;SDS011;56530;42.640;23.372;2023-09-18T06:07:02;14.18;;;11.48;;
69369;SDS011;56530;42.640;23.372;2023-09-18T06:09:28;15.07;;;12.70;;
69369;SDS011;56530;42.640;23.372;2023-09-18T06:11:53;18.33;;;12.83;;
69369;SDS011;56530;42.640;23.372;2023-09-18T06:14:19;15.00;;;12.00;;
69369;SDS011;56530;42.640;23.372;2023-09-18T06:16:44;15.43;;;11.87;;
69369;SDS011;56530;42.640;23.372;2023-09-18T06:19:09;16.53;;;12.10;;
69369;SDS011;56530;42.640;23.372;2023-09-18T06:21:35;18.33;;;13.00;;
69369;SDS011;56530;42.640;23.372;2023-09-18T06:24:00;14.97;;;11.57;;
69369;SDS011;56530;42.640;23.372;2023-09-18T06:26:25;14.30;;;10.87;;
69369;SDS011;56530;42.640;23.372;2023-09-18T06:28:51;16.47;;;12.50;;
69369;SDS011;56530;42.640;23.372;2023-09-18T06:31:17;15.10;;;11.33;;
69369;SDS011;56530;42.640;23.372;2023-09-18T06:33:43;13.52;;;11.85;;
69369;SDS011;56530;42.640;23.372;2023-09-18T06:36:09;13.80;;;12.20;;
69369;SDS011;56530;42.640;23.372;2023-09-18T06:38:34;14.33;;;11.90;;
69369;SDS011;56530;42.640;23.372;2023-09-18T06:40:59;18.17;;;13.13;;
69369;SDS011;56530;42.640;23.372;2023-09-18T06:43:25;13.23;;;11.83;;
69369;SDS011;56530;42.640;23.372;2023-09-18T06:45:50;17.33;;;12.83;;
69369;SDS011;56530;42.640;23.372;2023-09-18T06:48:15;16.33;;;13.07;;
69369;SDS011;56530;42.640;23.372;2023-09-18T06:50:42;14.83;;;12.20;;
69369;SDS011;56530;42.640;23.372;2023-09-18T06:53:07;13.93;;;12.15;;
69369;SDS011;56530;42.640;23.372;2023-09-18T06:55:34;14.27;;;12.40;;
69369;SDS011;56530;42.640;23.372;2023-09-18T06:57:59;17.13;;;12.97;;
69369;SDS011;56530;42.640;23.372;2023-09-18T07:00:25;15.63;;;12.73;;
69369;SDS011;56530;42.640;23.372;2023-09-18T07:02:50;14.63;;;13.03;;
69369;SDS011;56530;42.640;23.372;2023-09-18T07:05:16;14.68;;;13.18;;
69369;SDS011;56530;42.640;23.372;2023-09-18T07:07:41;14.40;;;12.90;;
69369;SDS011;56530;42.640;23.372;2023-09-18T07:10:06;35.90;;;15.43;;
69369;SDS011;56530;42.640;23.372;2023-09-18T07:12:32;14.43;;;12.82;;
69369;SDS011;56530;42.640;23.372;2023-09-18T07:14:59;14.83;;;13.33;;
69369;SDS011;56530;42.640;23.372;2023-09-18T07:17:28;14.73;;;13.00;;
69369;SDS011;56530;42.640;23.372;2023-09-18T07:19:53;15.37;;;13.50;;
69369;SDS011;56530;42.640;23.372;2023-09-18T07:22:19;13.93;;;11.70;;
69369;SDS011;56530;42.640;23.372;2023-09-18T07:24:44;16.23;;;13.83;;
69369;SDS011;56530;42.640;23.372;2023-09-18T07:27:11;16.52;;;13.32;;
69369;SDS011;56530;42.640;23.372;2023-09-18T07:29:36;15.20;;;12.90;;
69369;SDS011;56530;42.640;23.372;2023-09-18T07:32:01;16.10;;;12.60;;
69369;SDS011;56530;42.640;23.372;2023-09-18T07:34:27;15.73;;;13.90;;
69369;SDS011;56530;42.640;23.372;2023-09-18T07:36:52;18.90;;;15.13;;
69369;SDS011;56530;42.640;23.372;2023-09-18T07:39:20;15.33;;;12.70;;
69369;SDS011;56530;42.640;23.372;2023-09-18T07:41:45;15.77;;;12.73;;
69369;SDS011;56530;42.640;23.372;2023-09-18T07:44:12;16.67;;;13.95;;
69369;SDS011;56530;42.640;23.372;2023-09-18T07:46:45;16.17;;;14.48;;
69369;SDS011;56530;42.640;23.372;2023-09-18T07:49:10;15.17;;;12.73;;
69369;SDS011;56530;42.640;23.372;2023-09-18T07:51:35;17.93;;;13.60;;
69369;SDS011;56530;42.640;23.372;2023-09-18T07:54:01;14.97;;;12.73;;
69369;SDS011;56530;42.640;23.372;2023-09-18T07:56:26;19.87;;;14.83;;
69369;SDS011;56530;42.640;23.372;2023-09-18T07:58:52;16.52;;;13.93;;
69369;SDS011;56530;42.640;23.372;2023-09-18T08:01:18;16.88;;;12.95;;
69369;SDS011;56530;42.640;23.372;2023-09-18T08:03:47;19.25;;;14.90;;
69369;SDS011;56530;42.640;23.372;2023-09-18T08:06:12;18.83;;;12.90;;
69369;SDS011;56530;42.640;23.372;2023-09-18T08:08:40;14.82;;;12.93;;
69369;SDS011;56530;42.640;23.372;2023-09-18T08:11:06;14.40;;;12.93;;
69369;SDS011;56530;42.640;23.372;2023-09-18T08:13:35;14.45;;;11.52;;
69369;SDS011;56530;42.640;23.372;2023-09-18T08:16:01;13.73;;;11.77;;
69369;SDS011;56530;42.640;23.372;2023-09-18T08:18:28;13.27;;;11.98;;
69369;SDS011;56530;42.640;23.372;2023-09-18T08:20:53;13.75;;;11.80;;
69369;SDS011;56530;42.640;23.372;2023-09-18T08:23:19;13.85;;;11.40;;
69369;SDS011;56530;42.640;23.372;2023-09-18T08:25:45;13.27;;;11.87;;
69369;SDS011;56530;42.640;23.372;2023-09-18T08:28:12;12.63;;;11.33;;
69369;SDS011;56530;42.640;23.372;2023-09-18T08:30:39;14.90;;;11.13;;
69369;SDS011;56530;42.640;23.372;2023-09-18T08:33:05;15.00;;;12.10;;
69369;SDS011;56530;42.640;23.372;2023-09-18T08:35:30;14.90;;;11.82;;
69369;SDS011;56530;42.640;23.372;2023-09-18T08:37:57;12.88;;;11.50;;
69369;SDS011;56530;42.640;23.372;2023-09-18T08:40:22;12.67;;;11.20;;
69369;SDS011;56530;42.640;23.372;2023-09-18T08:42:48;13.88;;;11.50;;
69369;SDS011;56530;42.640;23.372;2023-09-18T08:45:31;12.95;;;11.10;;
69369;SDS011;56530;42.640;23.372;2023-09-18T08:48:01;13.73;;;12.13;;
69369;SDS011;56530;42.640;23.372;2023-09-18T08:50:26;16.87;;;11.60;;
69369;SDS011;56530;42.640;23.372;2023-09-18T08:52:52;13.33;;;10.70;;
69369;SDS011;56530;42.640;23.372;2023-09-18T08:55:17;14.27;;;10.70;;
69369;SDS011;56530;42.640;23.372;2023-09-18T08:57:43;11.80;;;9.95;;
69369;SDS011;56530;42.640;23.372;2023-09-18T09:00:10;10.43;;;9.43;;
69369;SDS011;56530;42.640;23.372;2023-09-18T09:02:41;11.55;;;10.35;;
69369;SDS011;56530;42.640;23.372;2023-09-18T09:05:06;11.48;;;10.38;;
69369;SDS011;56530;42.640;23.372;2023-09-18T09:07:32;11.87;;;10.00;;
69369;SDS011;56530;42.640;23.372;2023-09-18T09:09:57;12.73;;;7.63;;
69369;SDS011;56530;42.640;23.372;2023-09-18T09:15:46;12.20;;;8.35;;
69369;SDS011;56530;42.640;23.372;2023-09-18T09:18:12;9.93;;;8.85;;
69369;SDS011;56530;42.640;23.372;2023-09-18T09:20:40;10.02;;;9.00;;
69369;SDS011;56530;42.640;23.372;2023-09-18T09:23:08;11.35;;;8.43;;
69369;SDS011;56530;42.640;23.372;2023-09-18T09:25:34;10.80;;;8.18;;
69369;SDS011;56530;42.640;23.372;2023-09-18T09:28:01;10.50;;;9.43;;
69369;SDS011;56530;42.640;23.372;2023-09-18T09:30:32;9.55;;;8.65;;
69369;SDS011;56530;42.640;23.372;2023-09-18T09:32:58;9.82;;;8.82;;
69369;SDS011;56530;42.640;23.372;2023-09-18T09:35:31;9.95;;;8.50;;
69369;SDS011;56530;42.640;23.372;2023-09-18T09:38:09;10.30;;;8.57;;
69369;SDS011;56530;42.640;23.372;2023-09-18T09:40:40;10.15;;;9.23;;
69369;SDS011;56530;42.640;23.372;2023-09-18T09:43:07;13.85;;;8.68;;
69369;SDS011;56530;42.640;23.372;2023-09-18T09:45:38;16.42;;;8.77;;
69369;SDS011;56530;42.640;23.372;2023-09-18T09:48:05;10.13;;;8.68;;
69369;SDS011;56530;42.640;23.372;2023-09-18T09:50:31;10.48;;;8.45;;
69369;SDS011;56530;42.640;23.372;2023-09-18T09:52:57;11.13;;;8.93;;
69369;SDS011;56530;42.640;23.372;2023-09-18T09:58:00;10.95;;;9.00;;
69369;SDS011;56530;42.640;23.372;2023-09-18T10:00:34;11.48;;;8.90;;
69369;SDS011;56530;42.640;23.372;2023-09-18T10:03:08;10.37;;;7.17;;
69369;SDS011;56530;42.640;23.372;2023-09-18T10:05:36;9.73;;;8.15;;
69369;SDS011;56530;42.640;23.372;2023-09-18T10:08:10;10.52;;;8.93;;
69369;SDS011;56530;42.640;23.372;2023-09-18T10:11:09;11.02;;;8.98;;
69369;SDS011;56530;42.640;23.372;2023-09-18T10:13:46;11.13;;;8.93;;
69369;SDS011;56530;42.640;23.372;2023-09-18T10:16:23;8.75;;;7.28;;
69369;SDS011;56530;42.640;23.372;2023-09-18T10:21:55;8.05;;;7.25;;
69369;SDS011;56530;42.640;23.372;2023-09-18T10:24:32;8.02;;;7.22;;
69369;SDS011;56530;42.640;23.372;2023-09-18T10:27:01;7.82;;;7.13;;
69369;SDS011;56530;42.640;23.372;2023-09-18T10:29:28;7.75;;;6.95;;
69369;SDS011;56530;42.640;23.372;2023-09-18T10:31:55;9.60;;;7.35;;
69369;SDS011;56530;42.640;23.372;2023-09-18T10:34:22;7.93;;;7.03;;
69369;SDS011;56530;42.640;23.372;2023-09-18T10:36:49;8.75;;;7.40;;
69369;SDS011;56530;42.640;23.372;2023-09-18T10:39:15;8.65;;;6.60;;
69369;SDS011;56530;42.640;23.372;2023-09-18T10:41:50;10.00;;;6.90;;
69369;SDS011;56530;42.640;23.372;2023-09-18T10:44:17;9.32;;;6.78;;
69369;SDS011;56530;42.640;23.372;2023-09-18T10:46:44;6.60;;;6.00;;
69369;SDS011;56530;42.640;23.372;2023-09-18T10:49:10;7.30;;;6.60;;
69369;SDS011;56530;42.640;23.372;2023-09-18T10:51:36;7.17;;;6.03;;
69369;SDS011;56530;42.640;23.372;2023-09-18T10:54:06;6.82;;;6.13;;
69369;SDS011;56530;42.640;23.372;2023-09-18T10:56:32;7.57;;;5.63;;
69369;SDS011;56530;42.640;23.372;2023-09-18T10:58:58;5.63;;;5.07;;
69369;SDS011;56530;42.640;23.372;2023-09-18T11:01:24;7.30;;;5.60;;
69369;SDS011;56530;42.640;23.372;2023-09-18T11:03:52;7.18;;;5.35;;
69369;SDS011;56530;42.640;23.372;2023-09-18T11:06:17;5.97;;;5.13;;
69369;SDS011;56530;42.640;23.372;2023-09-18T11:08:46;5.85;;;5.05;;
69369;SDS011;56530;42.640;23.372;2023-09-18T11:11:16;9.35;;;5.18;;
69369;SDS011;56530;42.640;23.372;2023-09-18T11:13:46;8.68;;;5.22;;
69369;SDS011;56530;42.640;23.372;2023-09-18T11:21:25;8.95;;;5.03;;
69369;SDS011;56530;42.640;23.372;2023-09-18T11:24:15;7.15;;;4.82;;
69369;SDS011;56530;42.640;23.372;2023-09-18T11:26:43;5.60;;;4.63;;
69369;SDS011;56530;42.640;23.372;2023-09-18T11:29:10;8.50;;;4.90;;
69369;SDS011;56530;42.640;23.372;2023-09-18T11:31:50;6.13;;;4.63;;
69369;SDS011;56530;42.640;23.372;2023-09-18T11:34:24;5.23;;;4.63;;
69369;SDS011;56530;42.640;23.372;2023-09-18T11:36:56;5.20;;;4.57;;
69369;SDS011;56530;42.640;23.372;2023-09-18T11:42:21;6.82;;;4.80;;
69369;SDS011;56530;42.640;23.372;2023-09-18T11:44:47;5.28;;;4.47;;
69369;SDS011;56530;42.640;23.372;2023-09-18T11:47:17;6.00;;;4.47;;
69369;SDS011;56530;42.640;23.372;2023-09-18T11:52:19;6.80;;;5.00;;
69369;SDS011;56530;42.640;23.372;2023-09-18T11:54:46;10.07;;;4.82;;
69369;SDS011;56530;42.640;23.372;2023-09-18T11:57:12;5.10;;;4.57;;
69369;SDS011;56530;42.640;23.372;2023-09-18T11:59:39;4.90;;;4.40;;
69369;SDS011;56530;42.640;23.372;2023-09-18T12:02:07;5.85;;;5.15;;
69369;SDS011;56530;42.640;23.372;2023-09-18T12:04:33;5.88;;;5.28;;
69369;SDS011;56530;42.640;23.372;2023-09-18T12:06:59;7.10;;;4.50;;
69369;SDS011;56530;42.640;23.372;2023-09-18T12:09:27;5.82;;;5.22;;
69369;SDS011;56530;42.640;23.372;2023-09-18T12:11:53;7.30;;;4.87;;
69369;SDS011;56530;42.640;23.372;2023-09-18T12:14:22;5.95;;;4.72;;
69369;SDS011;56530;42.640;23.372;2023-09-18T12:16:48;6.40;;;4.83;;
69369;SDS011;56530;42.640;23.372;2023-09-18T12:19:18;7.55;;;5.35;;
69369;SDS011;56530;42.640;23.372;2023-09-18T12:21:47;10.38;;;5.35;;
69369;SDS011;56530;42.640;23.372;2023-09-18T12:24:23;5.50;;;4.95;;
69369;SDS011;56530;42.640;23.372;2023-09-18T12:26:50;5.72;;;4.97;;
69369;SDS011;56530;42.640;23.372;2023-09-18T12:29:16;7.53;;;5.47;;
69369;SDS011;56530;42.640;23.372;2023-09-18T12:31:41;7.30;;;4.88;;
69369;SDS011;56530;42.640;23.372;2023-09-18T12:34:20;6.60;;;5.28;;
69369;SDS011;56530;42.640;23.372;2023-09-18T12:36:49;7.32;;;5.25;;
69369;SDS011;56530;42.640;23.372;2023-09-18T12:39:15;5.25;;;4.75;;
69369;SDS011;56530;42.640;23.372;2023-09-18T12:41:42;5.47;;;4.50;;
69369;SDS011;56530;42.640;23.372;2023-09-18T12:44:08;5.78;;;4.75;;
69369;SDS011;56530;42.640;23.372;2023-09-18T12:46:35;6.40;;;5.33;;
69369;SDS011;56530;42.640;23.372;2023-09-18T12:49:14;5.13;;;4.43;;
69369;SDS011;56530;42.640;23.372;2023-09-18T12:54:37;6.82;;;4.93;;
69369;SDS011;56530;42.640;23.372;2023-09-18T12:57:06;5.60;;;4.77;;
69369;SDS011;56530;42.640;23.372;2023-09-18T12:59:35;5.13;;;4.63;;
69369;SDS011;56530;42.640;23.372;2023-09-18T13:02:02;6.72;;;4.72;;
69369;SDS011;56530;42.640;23.372;2023-09-18T13:04:32;4.82;;;4.30;;
69369;SDS011;56530;42.640;23.372;2023-09-18T13:07:06;7.20;;;4.67;;
69369;SDS011;56530;42.640;23.372;2023-09-18T13:09:32;7.05;;;5.13;;
69369;SDS011;56530;42.640;23.372;2023-09-18T13:11:57;5.53;;;4.75;;
69369;SDS011;56530;42.640;23.372;2023-09-18T13:14:23;5.93;;;4.75;;
69369;SDS011;56530;42.640;23.372;2023-09-18T13:16:49;10.50;;;6.07;;
69369;SDS011;56530;42.640;23.372;2023-09-18T13:19:15;5.67;;;4.70;;
69369;SDS011;56530;42.640;23.372;2023-09-18T13:21:49;5.60;;;4.93;;
69369;SDS011;56530;42.640;23.372;2023-09-18T13:24:27;6.75;;;4.80;;
69369;SDS011;56530;42.640;23.372;2023-09-18T13:26:54;5.40;;;4.90;;
69369;SDS011;56530;42.640;23.372;2023-09-18T13:29:20;5.20;;;4.65;;
69369;SDS011;56530;42.640;23.372;2023-09-18T13:31:46;6.07;;;5.10;;
69369;SDS011;56530;42.640;23.372;2023-09-18T13:34:11;6.88;;;5.32;;
69369;SDS011;56530;42.640;23.372;2023-09-18T13:36:37;6.57;;;4.03;;
69369;SDS011;56530;42.640;23.372;2023-09-18T13:39:02;5.37;;;4.53;;
69369;SDS011;56530;42.640;23.372;2023-09-18T13:41:28;6.57;;;4.70;;
69369;SDS011;56530;42.640;23.372;2023-09-18T13:43:54;5.87;;;4.90;;
69369;SDS011;56530;42.640;23.372;2023-09-18T13:46:20;5.93;;;4.97;;
69369;SDS011;56530;42.640;23.372;2023-09-18T13:48:46;6.70;;;5.57;;
69369;SDS011;56530;42.640;23.372;2023-09-18T13:51:13;6.35;;;4.78;;
69369;SDS011;56530;42.640;23.372;2023-09-18T13:53:38;5.68;;;4.45;;
69369;SDS011;56530;42.640;23.372;2023-09-18T13:56:06;6.00;;;4.75;;
69369;SDS011;56530;42.640;23.372;2023-09-18T13:58:31;5.70;;;4.57;;
69369;SDS011;56530;42.640;23.372;2023-09-18T14:00:56;5.63;;;4.30;;
69369;SDS011;56530;42.640;23.372;2023-09-18T14:03:22;7.15;;;4.95;;
69369;SDS011;56530;42.640;23.372;2023-09-18T14:05:48;5.97;;;4.65;;
69369;SDS011;56530;42.640;23.372;2023-09-18T14:08:14;6.30;;;4.68;;
69369;SDS011;56530;42.640;23.372;2023-09-18T14:10:39;6.60;;;4.60;;
69369;SDS011;56530;42.640;23.372;2023-09-18T14:13:05;5.53;;;4.95;;
69369;SDS011;56530;42.640;23.372;2023-09-18T14:15:30;5.00;;;4.50;;
69369;SDS011;56530;42.640;23.372;2023-09-18T14:17:56;6.80;;;5.00;;
69369;SDS011;56530;42.640;23.372;2023-09-18T14:20:21;7.63;;;4.15;;
69369;SDS011;56530;42.640;23.372;2023-09-18T14:22:47;6.03;;;4.40;;
69369;SDS011;56530;42.640;23.372;2023-09-18T14:25:14;6.45;;;4.40;;
69369;SDS011;56530;42.640;23.372;2023-09-18T14:27:40;7.63;;;4.70;;
69369;SDS011;56530;42.640;23.372;2023-09-18T14:30:07;6.20;;;4.40;;
69369;SDS011;56530;42.640;23.372;2023-09-18T14:32:33;5.43;;;4.50;;
69369;SDS011;56530;42.640;23.372;2023-09-18T14:35:00;5.70;;;4.50;;
69369;SDS011;56530;42.640;23.372;2023-09-18T14:37:27;4.82;;;4.30;;